createdAt,value
2023-04-02T00:01:39.472Z,100719.14
2023-04-02T00:04:22.497Z,100722.05
2023-04-02T00:07:33.473Z,100728.77
2023-04-02T00:10:03.681Z,100729.66
2023-04-02T00:12:31.900Z,100731.11
2023-04-02T00:15:00.349Z,100735.42
2023-04-02T00:17:28.572Z,100742.63
2023-04-02T00:20:08.194Z,100746.10
2023-04-02T00:22:45.040Z,100741.23
2023-04-02T00:25:15.417Z,100749.48
2023-04-02T00:27:46.018Z,100749.77
2023-04-02T00:30:15.815Z,100755.38
2023-04-02T00:32:46.303Z,100762.27
2023-04-02T00:35:27.104Z,100766.80
2023-04-02T00:37:56.829Z,100770.27
2023-04-02T00:40:31.323Z,100774.21
2023-04-02T00:43:04.349Z,100778.03
2023-04-02T00:45:38.829Z,100781.98
2023-04-02T00:48:50.852Z,100783.77
2023-04-02T00:51:41.833Z,100786.41
2023-04-02T00:54:17.030Z,100790.80
2023-04-02T00:56:51.815Z,100794.59
2023-04-02T00:59:34.298Z,100799.48
2023-04-02T01:02:18.957Z,100804.55
2023-04-02T01:05:05.159Z,100806.63
2023-04-02T01:08:23.984Z,100810.70
2023-04-02T01:11:11.931Z,100817.27
2023-04-02T01:14:14.007Z,100822.04
2023-04-02T01:17:10.913Z,100828.24
2023-04-02T01:20:17.253Z,100833.55
2023-04-02T01:22:58.067Z,100838.96
2023-04-02T01:25:44.017Z,100844.34
2023-04-02T01:28:22.399Z,100850.19
2023-04-02T01:30:57.063Z,100855.02
2023-04-02T01:33:30.338Z,100856.62
2023-04-02T01:36:34.223Z,100860.87
2023-04-02T01:39:33.406Z,100864.77
2023-04-02T01:42:38.470Z,100867.52
2023-04-02T01:45:20.073Z,100875.23
2023-04-02T01:47:51.436Z,100877.66
2023-04-02T01:50:41.779Z,100883.91
2023-04-02T01:53:19.280Z,100888.36
2023-04-02T01:55:53.121Z,100887.72
2023-04-02T01:58:28.402Z,100895.98
2023-04-02T02:01:18.879Z,100901.95
2023-04-02T02:03:51.265Z,100903.95
2023-04-02T02:06:23.340Z,100911.36
2023-04-02T02:09:06.055Z,100913.27
2023-04-02T02:11:36.539Z,100914.52
2023-04-02T02:14:17.145Z,100924.98
2023-04-02T02:16:47.649Z,100924.08
2023-04-02T02:19:32.771Z,100929.15
2023-04-02T02:22:31.675Z,100929.89
2023-04-02T02:25:07.458Z,100933.10
2023-04-02T02:27:51.944Z,100942.00
2023-04-02T02:30:47.243Z,100943.84
2023-04-02T02:33:45.992Z,100947.41
2023-04-02T02:36:33.618Z,100951.36
2023-04-02T02:39:30.475Z,100952.95
2023-04-02T02:42:22.732Z,100959.89
2023-04-02T02:44:56.554Z,100961.79
2023-04-02T02:47:34.690Z,100967.55
2023-04-02T02:50:13.904Z,100973.40
2023-04-02T02:52:51.183Z,100979.89
2023-04-02T02:55:51.128Z,100982.58
2023-04-02T02:58:28.149Z,100987.25
2023-04-02T03:00:59.119Z,100991.66
2023-04-02T03:03:34.294Z,100995.21
2023-04-02T03:06:16.590Z,101002.10
2023-04-02T03:09:10.949Z,101003.64
2023-04-02T03:11:53.614Z,101009.75
2023-04-02T03:14:40.806Z,101013.34
2023-04-02T03:17:30.089Z,101017.95
2023-04-02T03:20:17.607Z,101021.79
2023-04-02T03:23:18.481Z,101021.89
2023-04-02T03:26:03.121Z,101030.34
2023-04-02T03:28:43.578Z,101034.43
2023-04-02T03:31:47.611Z,101037.75
2023-04-02T03:34:26.600Z,101049.32
2023-04-02T03:37:24.069Z,101049.77
2023-04-02T03:40:08.772Z,101054.06
2023-04-02T03:43:25.580Z,101059.67
2023-04-02T03:46:34.057Z,101062.42
2023-04-02T03:49:33.123Z,101069.05
2023-04-02T03:52:20.050Z,101068.96
2023-04-02T03:54:53.297Z,101079.30
2023-04-02T03:57:30.246Z,101085.65
2023-04-02T04:00:14.325Z,101092.93
2023-04-02T04:02:52.486Z,101097.83
2023-04-02T04:05:30.134Z,101107.61
2023-04-02T04:08:13.926Z,101111.76
2023-04-02T04:10:44.911Z,101117.62
2023-04-02T04:13:31.428Z,101118.92
2023-04-02T04:16:10.546Z,101129.08
2023-04-02T04:19:22.763Z,101130.39
2023-04-02T04:21:57.104Z,101134.34
2023-04-02T04:24:28.063Z,101136.77
2023-04-02T04:27:09.616Z,101145.16
2023-04-02T04:29:59.888Z,101149.95
2023-04-02T04:32:39.152Z,101154.54
2023-04-02T04:35:35.300Z,101163.71
2023-04-02T04:38:17.972Z,101166.31
2023-04-02T04:41:05.698Z,101174.01
2023-04-02T04:43:42.172Z,101178.21
2023-04-02T04:46:32.910Z,101178.40
2023-04-02T04:49:27.941Z,101184.83
2023-04-02T04:52:09.030Z,101187.55
2023-04-02T04:54:40.025Z,101194.30
2023-04-02T04:57:32.140Z,101195.70
2023-04-02T05:00:25.873Z,101201.65
2023-04-02T05:03:44.618Z,101211.38
2023-04-02T05:06:49.533Z,101216.77
2023-04-02T05:09:30.532Z,101218.38
2023-04-02T05:12:37.915Z,101232.52
2023-04-02T05:15:11.633Z,101233.95
2023-04-02T05:18:12.063Z,101244.83
2023-04-02T05:21:07.088Z,101241.27
2023-04-02T05:24:16.904Z,101248.66
2023-04-02T05:26:51.952Z,101250.02
2023-04-02T05:29:33.021Z,101254.70
2023-04-02T05:32:15.644Z,101260.79
2023-04-02T05:34:54.773Z,101265.27
2023-04-02T05:37:30.631Z,101266.05
2023-04-02T05:40:14.669Z,101273.23
2023-04-02T05:42:50.925Z,101277.66
2023-04-02T05:45:36.297Z,101283.23
2023-04-02T05:48:19.091Z,101283.52
2023-04-02T05:50:56.631Z,101289.73
2023-04-02T05:53:41.705Z,101290.79
2023-04-02T05:56:26.283Z,101296.48
2023-04-02T05:59:19.527Z,101300.25
2023-04-02T06:02:15.637Z,101305.38
2023-04-02T06:05:12.821Z,101307.72
2023-04-02T06:07:55.438Z,101315.06
2023-04-02T06:10:36.005Z,101320.00
2023-04-02T06:13:08.571Z,101326.92
2023-04-02T06:15:39.044Z,101330.51
2023-04-02T06:18:26.452Z,101334.05
2023-04-02T06:20:57.014Z,101330.64
2023-04-02T06:23:37.045Z,101338.09
2023-04-02T06:26:36.238Z,101349.38
2023-04-02T06:29:29.875Z,101355.98
2023-04-02T06:32:06.076Z,101357.44
2023-04-02T06:34:40.062Z,101366.12
2023-04-02T06:37:35.788Z,101368.35
2023-04-02T06:40:41.675Z,101372.42
2023-04-02T06:43:26.414Z,101380.89
2023-04-02T06:45:58.171Z,101382.50
2023-04-02T06:48:31.192Z,101385.34
2023-04-02T06:51:09.235Z,101392.11
2023-04-02T06:53:44.670Z,101391.55
2023-04-02T06:56:38.107Z,101394.42
2023-04-02T06:59:07.583Z,101399.64
2023-04-02T07:02:35.073Z,101402.99
2023-04-02T07:05:09.252Z,101408.61
2023-04-02T07:07:36.303Z,101412.23
2023-04-02T07:10:06.909Z,101414.75
2023-04-02T07:12:36.658Z,101417.08
2023-04-02T07:15:07.408Z,101422.05
2023-04-02T07:17:37.398Z,101424.20
2023-04-02T07:20:29.433Z,101424.54
2023-04-02T07:22:59.245Z,101427.11
2023-04-02T07:25:29.671Z,101428.66
2023-04-02T07:27:59.519Z,101433.05
2023-04-02T07:30:27.958Z,101438.86
2023-04-02T07:32:56.689Z,101440.30
2023-04-02T07:35:24.791Z,101445.31
2023-04-02T07:37:53.156Z,101442.67
2023-04-02T07:40:24.045Z,101442.98
2023-04-02T07:42:53.012Z,101449.84
2023-04-02T07:45:21.365Z,101448.29
2023-04-02T07:47:49.941Z,101450.90
2023-04-02T07:50:18.882Z,101456.65
2023-04-02T07:52:46.814Z,101461.52
2023-04-02T07:55:16.707Z,101464.77
2023-04-02T07:57:57.392Z,101469.81
2023-04-02T08:00:29.096Z,101471.53
2023-04-02T08:02:59.013Z,101472.64
2023-04-02T08:05:28.871Z,101478.00
2023-04-02T08:07:58.694Z,101474.52
2023-04-02T08:10:28.511Z,101474.31
2023-04-02T08:12:58.375Z,101483.67
2023-04-02T08:15:28.226Z,101482.27
2023-04-02T08:17:58.063Z,101484.14
2023-04-02T08:20:28.280Z,101486.00
2023-04-02T08:22:58.192Z,101492.96
2023-04-02T08:25:28.941Z,101498.77
2023-04-02T08:27:58.760Z,101500.30
2023-04-02T08:30:28.690Z,101502.20
2023-04-02T08:32:58.538Z,101506.20
2023-04-02T08:35:28.400Z,101511.08
2023-04-02T08:37:59.084Z,101513.93
2023-04-02T08:40:41.157Z,101517.49
2023-04-02T08:43:51.010Z,101519.10
2023-04-02T08:46:34.805Z,101528.13
2023-04-02T08:49:15.574Z,101532.39
2023-04-02T08:51:47.716Z,101535.56
2023-04-02T08:54:30.888Z,101541.80
2023-04-02T08:57:19.269Z,101547.50
2023-04-02T09:00:07.391Z,101549.60
2023-04-02T09:02:50.732Z,101554.61
2023-04-02T09:05:28.579Z,101558.77
2023-04-02T09:08:02.957Z,101559.63
2023-04-02T09:10:48.354Z,101564.06
2023-04-02T09:13:31.188Z,101570.41
2023-04-02T09:16:16.449Z,101569.36
2023-04-02T09:18:47.913Z,101575.79
2023-04-02T09:21:20.896Z,101579.68
2023-04-02T09:23:50.973Z,101579.64
2023-04-02T09:26:27.186Z,101583.21
2023-04-02T09:29:11.963Z,101584.52
2023-04-02T09:31:46.571Z,101587.73
2023-04-02T09:34:36.065Z,101596.87
2023-04-02T09:37:22.851Z,101602.20
2023-04-02T09:39:51.980Z,101607.31
2023-04-02T09:42:38.070Z,101609.77
2023-04-02T09:45:26.920Z,101620.89
2023-04-02T09:47:58.854Z,101626.55
2023-04-02T09:50:33.016Z,101626.25
2023-04-02T09:53:33.330Z,101620.28
2023-04-02T09:56:23.159Z,101626.46
2023-04-02T09:59:13.608Z,101627.92
2023-04-02T10:01:55.870Z,101632.88
2023-04-02T10:04:44.104Z,101637.64
2023-04-02T10:07:49.342Z,101655.58
2023-04-02T10:10:44.913Z,101657.09
2023-04-02T10:13:21.889Z,101656.20
2023-04-02T10:16:14.361Z,101662.32
2023-04-02T10:19:07.598Z,101654.00
2023-04-02T10:21:40.710Z,101659.64
2023-04-02T10:24:16.747Z,101659.79
2023-04-02T10:26:51.346Z,101657.30
2023-04-02T10:30:12.648Z,101661.94
2023-04-02T10:33:20.122Z,101661.04
2023-04-02T10:36:01.396Z,101662.52
2023-04-02T10:38:43.369Z,101663.09
2023-04-02T10:41:47.054Z,101669.70
2023-04-02T10:44:36.746Z,101672.13
2023-04-02T10:47:17.088Z,101672.19
2023-04-02T10:50:28.043Z,101679.50
2023-04-02T10:53:22.982Z,101682.83
2023-04-02T10:56:05.478Z,101681.15
2023-04-02T10:58:52.418Z,101685.67
2023-04-02T11:01:29.778Z,101693.34
2023-04-02T11:04:16.380Z,101693.86
2023-04-02T11:07:03.864Z,101700.52
2023-04-02T11:09:48.351Z,101706.21
2023-04-02T11:12:59.535Z,101705.92
2023-04-02T11:15:30.260Z,101720.31
2023-04-02T11:18:00.174Z,101724.80
2023-04-02T11:20:48.247Z,101729.67
2023-04-02T11:23:20.978Z,101739.46
2023-04-02T11:25:51.040Z,101743.20
2023-04-02T11:28:32.578Z,101744.73
2023-04-02T11:31:02.405Z,101747.91
2023-04-02T11:33:38.618Z,101750.48
2023-04-02T11:36:55.052Z,101750.14
2023-04-02T11:39:56.798Z,101753.68
2023-04-02T11:42:36.216Z,101755.15
2023-04-02T11:45:24.074Z,101754.60
2023-04-02T11:47:59.769Z,101758.76
2023-04-02T11:50:31.754Z,101765.20
2023-04-02T11:53:23.169Z,101770.31
2023-04-02T11:56:08.118Z,101775.07
2023-04-02T11:59:22.242Z,101781.63
2023-04-02T12:02:14.095Z,101785.29
2023-04-02T12:05:09.260Z,101787.08
2023-04-02T12:08:14.766Z,101788.95
2023-04-02T12:11:02.396Z,101792.79
2023-04-02T12:13:41.267Z,101794.20
2023-04-02T12:16:13.609Z,101785.45
2023-04-02T12:18:53.754Z,101784.82
2023-04-02T12:21:28.539Z,101787.15
2023-04-02T12:23:59.852Z,101786.66
2023-04-02T12:26:37.893Z,101782.30
2023-04-02T12:29:29.035Z,101787.98
2023-04-02T12:32:00.023Z,101788.56
2023-04-02T12:34:30.979Z,101791.23
2023-04-02T12:37:04.885Z,101793.87
2023-04-02T12:39:35.303Z,101795.16
2023-04-02T12:42:06.965Z,101802.29
2023-04-02T12:44:37.269Z,101801.70
2023-04-02T12:47:07.198Z,101803.34
2023-04-02T12:49:43.923Z,101805.48
2023-04-02T12:52:17.163Z,101803.98
2023-04-02T12:54:53.863Z,101806.71
2023-04-02T12:57:36.102Z,101805.17
2023-04-02T13:00:21.214Z,101805.64
2023-04-02T13:03:17.893Z,101808.45
2023-04-02T13:05:56.525Z,101809.09
2023-04-02T13:08:31.247Z,101806.89
2023-04-02T13:11:04.472Z,101799.41
2023-04-02T13:13:41.797Z,101806.04
2023-04-02T13:16:17.871Z,101807.42
2023-04-02T13:18:49.502Z,101809.92
2023-04-02T13:21:19.519Z,101808.11
2023-04-02T13:23:49.689Z,101811.45
2023-04-02T13:26:24.251Z,101816.41
2023-04-02T13:29:23.293Z,101815.27
2023-04-02T13:31:55.132Z,101813.66
2023-04-02T13:34:23.053Z,101811.19
2023-04-02T13:36:50.388Z,101810.77
2023-04-02T13:39:21.524Z,101800.75
2023-04-02T13:42:17.307Z,101801.83
2023-04-02T13:44:47.886Z,101797.63
2023-04-02T13:47:17.669Z,101800.85
2023-04-02T13:49:44.778Z,101816.02
2023-04-02T13:52:16.983Z,101818.70
2023-04-02T13:54:59.826Z,101821.64
2023-04-02T13:57:29.589Z,101820.14
2023-04-02T13:59:59.269Z,101815.12
2023-04-02T14:02:29.394Z,101821.20
2023-04-02T14:05:22.448Z,101820.02
2023-04-02T14:08:26.034Z,101824.70
2023-04-02T14:11:04.907Z,101825.39
2023-04-02T14:13:58.826Z,101826.48
2023-04-02T14:16:46.833Z,101831.81
2023-04-02T14:19:34.638Z,101819.30
2023-04-02T14:22:28.897Z,101837.69
2023-04-02T14:25:17.234Z,101836.71
2023-04-02T14:28:07.511Z,101837.38
2023-04-02T14:30:50.032Z,101840.32
2023-04-02T14:34:06.773Z,101842.41
2023-04-02T14:37:16.298Z,101847.71
2023-04-02T14:40:18.173Z,101857.17
2023-04-02T14:43:04.515Z,101844.61
2023-04-02T14:45:55.317Z,101850.33
2023-04-02T14:48:52.764Z,101859.33
2023-04-02T14:51:37.194Z,101864.45
2023-04-02T14:54:28.140Z,101867.98
2023-04-02T14:57:18.805Z,101868.71
2023-04-02T15:00:02.042Z,101868.71
2023-04-02T15:02:51.491Z,101870.60
2023-04-02T15:05:36.194Z,101872.33
2023-04-02T15:08:22.655Z,101872.75
2023-04-02T15:11:23.553Z,101877.27
2023-04-02T15:14:15.043Z,101884.46
2023-04-02T15:16:44.170Z,101882.05
2023-04-02T15:19:18.601Z,101882.37
2023-04-02T15:22:12.957Z,101885.06
2023-04-02T15:25:05.343Z,101889.60
2023-04-02T15:27:58.158Z,101896.79
2023-04-02T15:30:44.794Z,101903.99
2023-04-02T15:34:10.502Z,101904.66
2023-04-02T15:36:57.405Z,101911.46
2023-04-02T15:39:33.056Z,101917.23
2023-04-02T15:42:29.155Z,101918.73
2023-04-02T15:45:10.655Z,101925.94
2023-04-02T15:48:01.046Z,101929.14
2023-04-02T15:50:49.716Z,101936.77
2023-04-02T15:53:33.811Z,101941.14
2023-04-02T15:56:42.596Z,101943.73
2023-04-02T15:59:57.126Z,101953.45
2023-04-02T16:02:59.331Z,101955.69
2023-04-02T16:05:44.565Z,101957.01
2023-04-02T16:08:29.395Z,101958.93
2023-04-02T16:10:59.198Z,101960.96
2023-04-02T16:13:38.118Z,101964.75
2023-04-02T16:16:29.927Z,101965.53
2023-04-02T16:19:33.035Z,101975.29
2023-04-02T16:22:20.669Z,101982.83
2023-04-02T16:25:13.592Z,101988.29
2023-04-02T16:28:02.562Z,101988.20
2023-04-02T16:30:56.311Z,101995.89
2023-04-02T16:33:48.070Z,102001.34
2023-04-02T16:36:48.623Z,101999.73
2023-04-02T16:39:38.263Z,102010.20
2023-04-02T16:42:27.389Z,102014.64
2023-04-02T16:45:26.653Z,102023.45
2023-04-02T16:48:11.286Z,102034.20
2023-04-02T16:50:47.157Z,102035.27
2023-04-02T16:53:30.521Z,102038.58
2023-04-02T16:56:25.016Z,102045.31
2023-04-02T16:59:22.281Z,102047.53
2023-04-02T17:02:11.038Z,102059.10
2023-04-02T17:05:21.811Z,102057.98
2023-04-02T17:08:24.737Z,102059.21
2023-04-02T17:11:04.814Z,102062.35
2023-04-02T17:14:06.116Z,102066.48
2023-04-02T17:16:50.318Z,102066.13
2023-04-02T17:19:24.042Z,102071.29
2023-04-02T17:22:03.539Z,102073.06
2023-04-02T17:24:46.224Z,102075.22
2023-04-02T17:27:32.501Z,102080.89
2023-04-02T17:30:19.476Z,102087.98
2023-04-02T17:32:49.333Z,102094.06
2023-04-02T17:35:34.004Z,102100.14
2023-04-02T17:38:37.674Z,102105.00
2023-04-02T17:41:20.699Z,102107.48
2023-04-02T17:44:20.364Z,102118.66
2023-04-02T17:47:19.926Z,102125.66
2023-04-02T17:50:12.381Z,102129.24
2023-04-02T17:52:56.788Z,102132.94
2023-04-02T17:55:41.780Z,102138.46
2023-04-02T17:58:49.908Z,102143.00
2023-04-02T18:01:58.506Z,102145.23
2023-04-02T18:04:44.216Z,102151.30
2023-04-02T18:07:30.293Z,102147.77
2023-04-02T18:10:13.634Z,102156.21
2023-04-02T18:13:01.603Z,102161.95
2023-04-02T18:15:59.167Z,102162.50
2023-04-02T18:18:40.773Z,102168.41
2023-04-02T18:21:30.870Z,102173.36
2023-04-02T18:24:25.473Z,102175.70
2023-04-02T18:27:01.215Z,102178.98
2023-04-02T18:29:56.725Z,102185.01
2023-04-02T18:33:01.486Z,102196.77
2023-04-02T18:35:53.540Z,102199.02
2023-04-02T18:38:34.653Z,102206.18
2023-04-02T18:41:26.938Z,102206.52
2023-04-02T18:44:24.786Z,102216.48
2023-04-02T18:47:05.342Z,102220.17
2023-04-02T18:49:45.854Z,102227.58
2023-04-02T18:52:18.809Z,102233.30
2023-04-02T18:54:56.985Z,102240.84
2023-04-02T18:57:34.146Z,102245.14
2023-04-02T19:00:19.971Z,102250.70
2023-04-02T19:03:24.109Z,102254.42
2023-04-02T19:06:13.315Z,102260.08
2023-04-02T19:08:55.055Z,102262.00
2023-04-02T19:11:31.131Z,102263.70
2023-04-02T19:14:07.224Z,102270.11
2023-04-02T19:16:49.158Z,102275.67
2023-04-02T19:19:22.644Z,102281.52
2023-04-02T19:22:12.657Z,102285.02
2023-04-02T19:25:07.812Z,102287.21
2023-04-02T19:28:01.983Z,102291.30
2023-04-02T19:31:01.638Z,102293.86
2023-04-02T19:33:37.400Z,102294.91
2023-04-02T19:36:20.994Z,102293.73
2023-04-02T19:39:53.523Z,102298.07
2023-04-02T19:42:33.626Z,102303.66
2023-04-02T19:45:04.338Z,102310.27
2023-04-02T19:47:34.176Z,102311.48
2023-04-02T19:50:04.497Z,102313.54
2023-04-02T19:52:34.284Z,102316.20
2023-04-02T19:55:04.327Z,102318.35
2023-04-02T19:57:34.209Z,102320.67
2023-04-02T20:00:05.152Z,102326.03
2023-04-02T20:02:35.177Z,102324.67
2023-04-02T20:05:05.880Z,102324.19
2023-04-02T20:07:36.013Z,102326.61
2023-04-02T20:10:07.335Z,102333.46
2023-04-02T20:12:37.586Z,102336.21
2023-04-02T20:15:08.354Z,102339.86
2023-04-02T20:17:38.271Z,102344.44
2023-04-02T20:20:10.606Z,102347.92
2023-04-02T20:22:40.580Z,102350.70
2023-04-02T20:25:11.018Z,102354.48
2023-04-02T20:27:41.324Z,102360.44
2023-04-02T20:30:11.904Z,102365.82
2023-04-02T20:32:41.943Z,102371.20
2023-04-02T20:35:12.305Z,102373.30
2023-04-02T20:37:42.146Z,102371.15
2023-04-02T20:40:12.291Z,102377.60
2023-04-02T20:42:42.095Z,102379.59
2023-04-02T20:45:12.351Z,102383.61
2023-04-02T20:47:43.016Z,102389.73
2023-04-02T20:50:12.893Z,102390.79
2023-04-02T20:52:42.676Z,102394.42
2023-04-02T20:55:12.454Z,102392.45
2023-04-02T20:57:42.327Z,102399.84
2023-04-02T21:00:13.558Z,102402.55
2023-04-02T21:02:43.325Z,102400.33
2023-04-02T21:05:13.164Z,102405.26
2023-04-02T21:07:43.093Z,102402.91
2023-04-02T21:10:12.948Z,102405.34
2023-04-02T21:12:43.004Z,102406.02
2023-04-02T21:15:13.482Z,102410.30
2023-04-02T21:17:43.318Z,102412.48
2023-04-02T21:20:12.727Z,102416.55
2023-04-02T21:22:40.524Z,102421.27
2023-04-02T21:25:09.593Z,102422.90
2023-04-02T21:27:37.131Z,102421.40
2023-04-02T21:30:06.616Z,102423.31
2023-04-02T21:32:35.259Z,102428.29
2023-04-02T21:35:04.171Z,102430.39
2023-04-02T21:37:32.126Z,102434.25
2023-04-02T21:40:00.511Z,102435.79
2023-04-02T21:42:29.072Z,102441.52
2023-04-02T21:44:57.422Z,102444.42
2023-04-02T21:47:27.809Z,102446.36
2023-04-02T21:49:57.666Z,102448.90
2023-04-02T21:52:27.538Z,102454.85
2023-04-02T21:54:57.300Z,102453.48
2023-04-02T21:57:27.125Z,102462.58
2023-04-02T21:59:57.196Z,102465.29
2023-04-02T22:02:27.003Z,102471.05
2023-04-02T22:04:56.805Z,102473.38
2023-04-02T22:07:26.550Z,102476.31
2023-04-02T22:09:54.986Z,102480.40
2023-04-02T22:12:23.465Z,102486.11
2023-04-02T22:14:51.952Z,102487.97
2023-04-02T22:17:20.481Z,102486.46
2023-04-02T22:19:48.644Z,102490.31
2023-04-02T22:22:17.216Z,102489.50
2023-04-02T22:24:45.544Z,102486.06
2023-04-02T22:27:14.017Z,102486.08
2023-04-02T22:29:42.316Z,102486.62
2023-04-02T22:32:10.976Z,102489.92
2023-04-02T22:34:45.393Z,102491.81
2023-04-02T22:37:15.610Z,102493.64
2023-04-02T22:39:45.403Z,102499.70
2023-04-02T22:42:15.315Z,102500.52
2023-04-02T22:44:45.067Z,102501.59
2023-04-02T22:47:14.891Z,102498.25
2023-04-02T22:49:44.726Z,102504.08
2023-04-02T22:52:14.458Z,102506.34
2023-04-02T22:54:44.214Z,102509.41
2023-04-02T22:57:14.072Z,102516.48
2023-04-02T22:59:43.840Z,102519.76
2023-04-02T23:02:13.611Z,102521.77
2023-04-02T23:04:43.514Z,102525.22
2023-04-02T23:07:13.406Z,102524.67
2023-04-02T23:09:43.276Z,102531.73
2023-04-02T23:12:16.916Z,102535.02
2023-04-02T23:14:47.099Z,102537.19
2023-04-02T23:17:16.902Z,102532.95
2023-04-02T23:19:46.613Z,102537.55
2023-04-02T23:22:16.368Z,102539.64
2023-04-02T23:24:44.767Z,102540.11
2023-04-02T23:27:13.153Z,102540.86
2023-04-02T23:29:41.576Z,102541.23
2023-04-02T23:32:10.117Z,102538.91
2023-04-02T23:34:38.585Z,102544.23
2023-04-02T23:37:06.977Z,102545.02
2023-04-02T23:39:35.960Z,102544.30
2023-04-02T23:42:04.796Z,102543.61
2023-04-02T23:44:32.313Z,102546.02
2023-04-02T23:47:01.816Z,102544.78
2023-04-02T23:49:29.188Z,102546.95
2023-04-02T23:51:58.265Z,102545.64
2023-04-02T23:54:25.806Z,102549.21
2023-04-02T23:56:54.228Z,102547.08
2023-04-02T23:59:22.570Z,102549.38
